createdAt,value
2022-09-27T00:03:17.977Z,9.759827
2022-09-27T00:06:43.417Z,9.840393
2022-09-27T00:10:08.817Z,9.790039
2022-09-27T00:13:34.252Z,9.719543
2022-09-27T00:16:59.676Z,9.659119
2022-09-27T00:20:25.127Z,9.578552
2022-09-27T00:23:50.529Z,9.497986
2022-09-27T00:27:15.946Z,9.467773
2022-09-27T00:30:41.437Z,9.457703
2022-09-27T00:34:06.766Z,9.477844
2022-09-27T00:37:32.175Z,9.457703
2022-09-27T00:40:57.631Z,9.477844
2022-09-27T00:44:22.960Z,9.508057
2022-09-27T00:47:48.410Z,9.457703
2022-09-27T00:51:13.834Z,9.356995
2022-09-27T00:54:39.266Z,9.346924
2022-09-27T00:58:04.686Z,9.387207
2022-09-27T01:01:30.131Z,9.467773
2022-09-27T01:04:55.518Z,9.477844
2022-09-27T01:08:20.903Z,9.467773
2022-09-27T01:11:46.331Z,9.467773
2022-09-27T01:15:11.724Z,9.397278
2022-09-27T01:18:37.118Z,9.346924
2022-09-27T01:22:02.552Z,9.377136
2022-09-27T01:25:27.906Z,9.417419
2022-09-27T01:28:53.325Z,9.467773
2022-09-27T01:32:18.728Z,9.568481
2022-09-27T01:35:44.141Z,9.578552
2022-09-27T01:39:09.564Z,9.497986
2022-09-27T01:42:34.967Z,9.42749
2022-09-27T01:46:00.419Z,9.417419
2022-09-27T01:49:25.799Z,9.417419
2022-09-27T01:52:51.216Z,9.417419
2022-09-27T01:56:16.713Z,9.477844
2022-09-27T01:59:42.095Z,9.457703
2022-09-27T02:03:07.560Z,9.417419
2022-09-27T02:06:32.925Z,9.42749
2022-09-27T02:09:58.335Z,9.397278
2022-09-27T02:13:23.780Z,9.356995
2022-09-27T02:16:49.195Z,9.306641
2022-09-27T02:20:14.599Z,9.306641
2022-09-27T02:23:40.064Z,9.286499
2022-09-27T02:27:05.466Z,9.306641
2022-09-27T02:30:30.987Z,9.326782
2022-09-27T02:33:56.260Z,9.286499
2022-09-27T02:37:21.694Z,9.346924
2022-09-27T02:40:47.201Z,9.377136
2022-09-27T02:44:12.533Z,9.387207
2022-09-27T02:47:37.957Z,9.306641
2022-09-27T02:51:03.327Z,9.316711
2022-09-27T02:54:28.727Z,9.306641
2022-09-27T02:57:54.103Z,9.226074
2022-09-27T03:01:19.547Z,9.256287
2022-09-27T03:04:45.006Z,9.316711
2022-09-27T03:08:10.396Z,9.346924
2022-09-27T03:11:35.824Z,9.387207
2022-09-27T03:15:01.223Z,9.356995
2022-09-27T03:18:26.646Z,9.286499
2022-09-27T03:21:52.076Z,9.326782
2022-09-27T03:25:17.471Z,9.346924
2022-09-27T03:28:42.887Z,9.377136
2022-09-27T03:32:08.275Z,9.346924
2022-09-27T03:35:33.678Z,9.306641
2022-09-27T03:38:59.117Z,9.356995
2022-09-27T03:42:24.510Z,9.326782
2022-09-27T03:45:49.984Z,9.326782
2022-09-27T03:49:15.429Z,9.316711
2022-09-27T03:52:40.786Z,9.377136
2022-09-27T03:56:06.221Z,9.326782
2022-09-27T03:59:31.614Z,9.397278
2022-09-27T04:02:57.028Z,9.377136
2022-09-27T04:06:22.413Z,9.397278
2022-09-27T04:09:47.842Z,9.467773
2022-09-27T04:13:13.272Z,9.497986
2022-09-27T04:16:38.679Z,9.528198
2022-09-27T04:20:04.065Z,9.508057
2022-09-27T04:23:30.235Z,9.387207
2022-09-27T04:26:54.907Z,9.356995
2022-09-27T04:30:20.349Z,9.387207
2022-09-27T04:33:45.730Z,9.377136
2022-09-27T04:37:11.127Z,9.387207
2022-09-27T04:40:36.711Z,9.477844
2022-09-27T04:44:02.106Z,9.477844
2022-09-27T04:47:27.629Z,9.497986
2022-09-27T04:50:53.056Z,9.497986
2022-09-27T04:54:18.473Z,9.528198
2022-09-27T04:57:43.941Z,9.508057
2022-09-27T05:01:09.447Z,9.42749
2022-09-27T05:04:34.791Z,9.467773
2022-09-27T05:08:00.150Z,9.42749
2022-09-27T05:11:25.566Z,9.457703
2022-09-27T05:14:50.965Z,9.497986
2022-09-27T05:18:16.430Z,9.497986
2022-09-27T05:21:41.921Z,9.578552
2022-09-27T05:25:07.321Z,9.638977
2022-09-27T05:28:32.771Z,9.659119
2022-09-27T05:31:58.218Z,9.659119
2022-09-27T05:35:23.612Z,9.689331
2022-09-27T05:38:49.062Z,9.608765
2022-09-27T05:42:14.490Z,9.538269
2022-09-27T05:45:39.968Z,9.528198
2022-09-27T05:49:05.368Z,9.477844
2022-09-27T05:52:30.803Z,9.356995
2022-09-27T05:55:56.246Z,9.286499
2022-09-27T05:59:21.701Z,9.356995
2022-09-27T06:02:47.102Z,9.356995
2022-09-27T06:06:12.570Z,9.457703
2022-09-27T06:09:37.986Z,9.508057
2022-09-27T06:13:03.487Z,9.568481
2022-09-27T06:16:28.937Z,9.689331
2022-09-27T06:19:54.307Z,9.67926
2022-09-27T06:23:19.752Z,9.67926
2022-09-27T06:26:45.178Z,9.608765
2022-09-27T06:30:10.579Z,9.659119
2022-09-27T06:33:35.975Z,9.719543
2022-09-27T06:37:01.408Z,9.689331
2022-09-27T06:40:26.912Z,9.649048
2022-09-27T06:43:52.275Z,9.689331
2022-09-27T06:47:17.721Z,9.649048
2022-09-27T06:50:43.063Z,9.689331
2022-09-27T06:54:08.481Z,9.709473
2022-09-27T06:57:33.934Z,9.709473
2022-09-27T07:00:59.436Z,9.67926
2022-09-27T07:04:24.939Z,9.719543
2022-09-27T07:07:50.280Z,9.719543
2022-09-27T07:11:15.717Z,9.749756
2022-09-27T07:14:41.138Z,9.689331
2022-09-27T07:18:06.538Z,9.67926
2022-09-27T07:21:31.973Z,9.719543
2022-09-27T07:24:57.355Z,9.739685
2022-09-27T07:28:22.750Z,9.739685
2022-09-27T07:31:48.153Z,9.709473
2022-09-27T07:35:13.614Z,9.709473
2022-09-27T07:38:39.109Z,9.739685
2022-09-27T07:42:04.452Z,9.810181
2022-09-27T07:45:29.878Z,9.739685
2022-09-27T07:48:55.298Z,9.779968
2022-09-27T07:52:20.706Z,9.830322
2022-09-27T07:55:46.163Z,9.860535
2022-09-27T07:59:11.668Z,9.900818
2022-09-27T08:02:37.071Z,9.870605
2022-09-27T08:06:02.397Z,9.900818
2022-09-27T08:09:27.812Z,9.840393
2022-09-27T08:12:53.309Z,9.900818
2022-09-27T08:16:18.669Z,9.961243
2022-09-27T08:19:44.096Z,10.05188
2022-09-27T08:23:09.509Z,10.172729
2022-09-27T08:26:34.934Z,10.152588
2022-09-27T08:30:00.377Z,10.011597
2022-09-27T08:33:28.691Z,9.900818
2022-09-27T08:36:51.183Z,9.910889
2022-09-27T08:40:16.669Z,9.830322
2022-09-27T08:43:42.101Z,9.870605
2022-09-27T08:47:07.559Z,9.790039
2022-09-27T08:50:36.126Z,9.739685
2022-09-27T08:53:58.522Z,9.709473
2022-09-27T08:57:23.728Z,9.749756
2022-09-27T09:00:49.235Z,9.790039
2022-09-27T09:04:14.622Z,9.810181
2022-09-27T09:07:40.024Z,9.860535
2022-09-27T09:11:05.535Z,9.810181
2022-09-27T09:14:30.949Z,9.749756
2022-09-27T09:17:56.366Z,9.759827
2022-09-27T09:21:21.781Z,9.790039
2022-09-27T09:24:47.180Z,9.830322
2022-09-27T09:28:12.614Z,9.870605
2022-09-27T09:31:38.046Z,9.890747
2022-09-27T09:35:03.473Z,9.840393
2022-09-27T09:38:28.901Z,9.900818
2022-09-27T09:41:54.348Z,9.941101
2022-09-27T09:45:19.795Z,9.870605
2022-09-27T09:48:45.195Z,9.709473
2022-09-27T09:52:10.416Z,9.608765
2022-09-27T09:55:35.820Z,9.598694
2022-09-27T09:59:01.230Z,9.608765
2022-09-27T10:02:26.706Z,9.689331
2022-09-27T10:05:52.131Z,9.719543
2022-09-27T10:09:17.632Z,9.649048
2022-09-27T10:12:43.030Z,9.749756
2022-09-27T10:16:08.541Z,9.840393
2022-09-27T10:19:33.926Z,9.870605
2022-09-27T10:22:59.330Z,9.910889
2022-09-27T10:26:24.746Z,10.072021
2022-09-27T10:29:50.189Z,10.05188
2022-09-27T10:33:15.547Z,10.041809
2022-09-27T10:36:41.847Z,10.202942
2022-09-27T10:40:07.303Z,10.333862
2022-09-27T10:43:32.698Z,10.4245
2022-09-27T10:46:58.225Z,10.545349
2022-09-27T10:50:39.143Z,10.55542
2022-09-27T10:53:49.228Z,10.625916
2022-09-27T10:57:14.574Z,10.656128
2022-09-27T11:00:40.128Z,10.656128
2022-09-27T11:04:05.595Z,10.696411
2022-09-27T11:07:30.968Z,10.93811
2022-09-27T11:10:56.415Z,11.038818
2022-09-27T11:14:21.839Z,11.17981
2022-09-27T11:17:47.252Z,11.240234
2022-09-27T11:21:12.680Z,11.139526
2022-09-27T11:24:38.069Z,10.877686
2022-09-27T11:28:03.477Z,10.726624
2022-09-27T11:31:28.942Z,10.444641
2022-09-27T11:34:54.325Z,10.223083
2022-09-27T11:38:34.926Z,10.041809
2022-09-27T11:41:45.154Z,9.991455
2022-09-27T11:45:32.326Z,10.011597
2022-09-27T11:48:36.083Z,10.092163
2022-09-27T11:52:01.495Z,10.172729
2022-09-27T11:55:26.940Z,10.364075
2022-09-27T11:58:52.328Z,10.545349
2022-09-27T12:02:17.870Z,10.706482
2022-09-27T12:05:43.243Z,10.887756
2022-09-27T12:09:08.661Z,10.93811
2022-09-27T12:12:34.148Z,10.817261
2022-09-27T12:15:59.633Z,10.67627
2022-09-27T12:19:25.065Z,10.55542
2022-09-27T12:22:59.405Z,10.444641
2022-09-27T12:26:15.904Z,10.4245
2022-09-27T12:29:41.388Z,10.55542
2022-09-27T12:33:06.804Z,10.787048
2022-09-27T12:36:36.111Z,10.877686
2022-09-27T12:39:57.661Z,10.998535
2022-09-27T12:43:23.131Z,11.028748
2022-09-27T12:46:49.608Z,10.988464
2022-09-27T12:50:14.726Z,10.93811
2022-09-27T12:53:40.149Z,11.028748
2022-09-27T12:57:05.633Z,10.958252
2022-09-27T13:00:31.069Z,10.998535
2022-09-27T13:03:56.584Z,10.93811
2022-09-27T13:07:22.658Z,10.917969
2022-09-27T13:10:49.108Z,10.917969
2022-09-27T13:14:14.574Z,10.726624
2022-09-27T13:17:39.960Z,10.525208
2022-09-27T13:21:05.441Z,10.474854
2022-09-27T13:24:30.862Z,10.505066
2022-09-27T13:27:56.338Z,10.444641
2022-09-27T13:31:21.804Z,10.404358
2022-09-27T13:34:47.174Z,10.384216
2022-09-27T13:38:12.654Z,10.4245
2022-09-27T13:41:43.922Z,10.525208
2022-09-27T13:45:10.457Z,10.656128
2022-09-27T13:48:36.060Z,10.625916
2022-09-27T13:52:01.493Z,10.726624
2022-09-27T13:55:26.959Z,10.756836
2022-09-27T13:58:52.350Z,10.907898
2022-09-27T14:02:17.815Z,10.887756
2022-09-27T14:05:43.245Z,10.907898
2022-09-27T14:09:08.685Z,10.917969
2022-09-27T14:12:34.203Z,10.887756
2022-09-27T14:15:59.652Z,10.837402
2022-09-27T14:19:25.060Z,10.817261
2022-09-27T14:22:50.526Z,10.857544
2022-09-27T14:26:16.041Z,10.776978
2022-09-27T15:03:48.203Z,9.971313
2022-09-27T15:07:13.422Z,9.971313
2022-09-27T15:10:38.864Z,9.961243
2022-09-27T15:14:04.163Z,10.072021
2022-09-27T15:17:29.494Z,10.172729
2022-09-27T15:20:54.894Z,10.05188
2022-09-27T15:24:20.173Z,9.910889
2022-09-27T15:27:45.565Z,9.900818
2022-09-27T15:31:10.963Z,9.900818
2022-09-27T15:34:36.261Z,9.93103
2022-09-27T15:38:01.588Z,9.900818
2022-09-27T15:41:26.877Z,9.93103
2022-09-27T15:44:53.038Z,9.971313
2022-09-27T15:48:19.008Z,10.011597
2022-09-27T15:51:44.365Z,10.021667
2022-09-27T15:55:09.726Z,10.041809
2022-09-27T15:58:35.104Z,9.910889
2022-09-27T16:02:04.158Z,9.860535
2022-09-27T16:05:26.027Z,9.900818
2022-09-27T16:08:51.419Z,9.840393
2022-09-27T16:12:16.937Z,9.870605
2022-09-27T16:15:42.354Z,9.779968
2022-09-27T16:19:07.842Z,9.689331
2022-09-27T16:22:33.299Z,9.67926
2022-09-27T16:25:58.760Z,9.719543
2022-09-27T16:29:24.228Z,9.709473
2022-09-27T16:32:49.703Z,9.659119
2022-09-27T16:36:15.150Z,9.598694
2022-09-27T16:39:40.592Z,9.578552
2022-09-27T16:43:06.052Z,9.598694
2022-09-27T16:46:31.588Z,9.608765
2022-09-27T16:49:57.041Z,9.538269
2022-09-27T16:53:22.489Z,9.477844
2022-09-27T16:56:49.546Z,9.467773
2022-09-27T17:00:13.567Z,9.508057
2022-09-27T17:03:39.040Z,9.538269
2022-09-27T17:07:04.414Z,9.497986
2022-09-27T17:10:29.922Z,9.508057
2022-09-27T17:13:55.349Z,9.568481
2022-09-27T17:17:20.787Z,9.578552
2022-09-27T17:20:46.334Z,9.638977
2022-09-27T17:24:11.902Z,9.558411
2022-09-27T17:27:37.244Z,9.558411
2022-09-27T17:31:02.751Z,9.457703
2022-09-27T17:34:28.155Z,9.356995
2022-09-27T17:37:53.589Z,9.306641
2022-09-27T17:41:19.058Z,9.306641
2022-09-27T17:44:44.463Z,9.226074
2022-09-27T17:48:13.445Z,9.276428
2022-09-27T17:51:35.400Z,9.316711
2022-09-27T17:55:00.843Z,9.316711
2022-09-27T17:58:26.240Z,9.346924
2022-09-27T18:01:51.768Z,9.356995
2022-09-27T18:05:17.116Z,9.226074
2022-09-27T18:08:42.660Z,9.145508
2022-09-27T18:12:08.126Z,9.054871
2022-09-27T18:15:33.557Z,9.095154
2022-09-27T18:18:59.014Z,9.145508
2022-09-27T18:22:24.508Z,9.125366
2022-09-27T18:25:49.973Z,9.095154
2022-09-27T18:29:15.475Z,9.0448
2022-09-27T18:32:40.888Z,9.075012
2022-09-27T18:36:06.295Z,9.024658
2022-09-27T18:39:31.710Z,8.994446
2022-09-27T18:42:57.171Z,8.964233
2022-09-27T18:46:37.048Z,8.863525
2022-09-27T18:49:48.016Z,8.79303
2022-09-27T18:53:13.513Z,8.742676
2022-09-27T18:56:39.005Z,8.702393
2022-09-27T19:00:04.341Z,8.702393
2022-09-27T19:03:29.793Z,8.631897
2022-09-27T19:06:55.220Z,8.611755
2022-09-27T19:10:20.664Z,8.611755
2022-09-27T19:13:51.060Z,8.621826
2022-09-27T19:17:11.613Z,8.621826
2022-09-27T19:20:37.083Z,8.611755
2022-09-27T19:24:02.585Z,8.611755
2022-09-27T19:27:28.013Z,8.621826
2022-09-27T19:30:53.462Z,8.662109
2022-09-27T19:34:18.909Z,8.631897
2022-09-27T19:37:44.413Z,8.652039
2022-09-27T19:41:09.806Z,8.631897
2022-09-27T19:44:35.243Z,8.621826
2022-09-27T19:48:00.627Z,8.480835
2022-09-27T19:51:26.059Z,8.500977
2022-09-27T19:54:51.464Z,8.521118
2022-09-27T19:58:16.880Z,8.521118
2022-09-27T20:01:42.326Z,8.470764
2022-09-27T20:05:07.649Z,8.470764
2022-09-27T20:08:33.021Z,8.410339
2022-09-27T20:11:58.465Z,8.440552
2022-09-27T20:15:23.842Z,8.500977
2022-09-27T20:18:49.237Z,8.591614
2022-09-27T20:22:14.611Z,8.611755
2022-09-27T20:25:42.996Z,8.621826
2022-09-27T20:29:05.419Z,8.611755
2022-09-27T20:32:30.827Z,8.631897
2022-09-27T20:35:56.147Z,8.631897
2022-09-27T20:39:21.525Z,8.621826
2022-09-27T20:42:46.889Z,8.591614
2022-09-27T20:46:12.342Z,8.581543
2022-09-27T20:49:37.659Z,8.591614
2022-09-27T20:53:03.012Z,8.581543
2022-09-27T20:56:28.386Z,8.611755
2022-09-27T20:59:53.798Z,8.561401
2022-09-27T21:03:21.722Z,8.581543
2022-09-27T21:06:44.509Z,8.561401
2022-09-27T21:10:09.882Z,8.531189
2022-09-27T21:13:35.233Z,8.521118
2022-09-27T21:17:02.022Z,8.521118
2022-09-27T21:20:26.005Z,8.531189
2022-09-27T21:23:51.397Z,8.531189
2022-09-27T21:27:16.785Z,8.521118
2022-09-27T21:30:42.171Z,8.480835
2022-09-27T21:34:07.529Z,8.440552
2022-09-27T21:37:33.951Z,8.370056
2022-09-27T21:40:58.397Z,8.359985
2022-09-27T21:44:23.669Z,8.380127
2022-09-27T21:47:49.034Z,8.470764
2022-09-27T21:51:14.431Z,8.470764
2022-09-27T21:54:39.847Z,8.370056
2022-09-27T21:58:05.223Z,8.28949
2022-09-27T22:01:30.594Z,8.299561
2022-09-27T22:04:55.990Z,8.218994
2022-09-27T22:08:21.384Z,8.229065
2022-09-27T22:11:46.739Z,8.188782
2022-09-27T22:15:12.091Z,8.118286
2022-09-27T22:18:37.462Z,8.158569
2022-09-27T22:22:02.852Z,8.178711
2022-09-27T22:25:28.247Z,8.118286
2022-09-27T22:28:53.657Z,8.108215
2022-09-27T22:32:18.991Z,8.078003
2022-09-27T22:35:44.385Z,8.098145
2022-09-27T22:39:09.777Z,8.047791
2022-09-27T22:42:35.147Z,8.047791
2022-09-27T22:46:00.568Z,7.967224
2022-09-27T22:49:25.950Z,7.856445
2022-09-27T22:52:51.324Z,7.826233
2022-09-27T22:56:16.706Z,7.826233
2022-09-27T22:59:42.083Z,7.846375
2022-09-27T23:03:07.519Z,7.856445
2022-09-27T23:06:32.891Z,7.78595
2022-09-27T23:09:58.264Z,7.796021
2022-09-27T23:13:23.660Z,7.826233
2022-09-27T23:16:49.007Z,7.826233
2022-09-27T23:20:14.419Z,7.78595
2022-09-27T23:23:39.798Z,7.735596
2022-09-27T23:27:05.202Z,7.705383
2022-09-27T23:30:30.585Z,7.78595
2022-09-27T23:33:55.947Z,7.846375
2022-09-27T23:37:21.360Z,7.816162
2022-09-27T23:40:46.755Z,7.796021
2022-09-27T23:44:12.075Z,7.816162
2022-09-27T23:47:37.448Z,7.826233
2022-09-27T23:51:02.825Z,7.78595
2022-09-27T23:54:28.221Z,7.765808
2022-09-27T23:57:53.566Z,7.78595
